Time;durP1;ratioP1;P1;durP2;ratioP2;P2;SDS_P1;SDS_P2;PMS_P1;PMS_P2;Temp;Humidity;BMP_temperature;BMP_pressure;BME280_temperature;BME280_humidity;BME280_pressure;Samples;Min_cycle;Max_cycle;Signal;HPM_P1;HPM_P2
2022/08/30 00:01:19;;;;;;;7.03;3.47;;;;;;;;;;5100421;28;46037;-66
2022/08/30 00:03:46;;;;;;;6.53;3.03;;;;;;;;;;5084357;28;20052;-66
2022/08/30 00:06:14;;;;;;;4.45;3.13;;;;;;;;;;5090925;28;20523;-66
2022/08/30 00:08:41;;;;;;;5.55;3.15;;;;;;;;;;5081768;28;20053;-66
2022/08/30 00:11:08;;;;;;;6.22;3.13;;;;;;;;;;5087616;28;20048;-66
2022/08/30 00:13:36;;;;;;;4.28;3.00;;;;;;;;;;5090137;28;20088;-66
2022/08/30 00:16:02;;;;;;;5.40;3.10;;;;;;;;;;5092708;28;20060;-66
2022/08/30 00:18:30;;;;;;;3.72;3.25;;;;;;;;;;5076888;28;20493;-67
2022/08/30 00:20:56;;;;;;;7.72;3.55;;;;;;;;;;5082900;28;20059;-66
2022/08/30 00:23:23;;;;;;;8.90;4.07;;;;;;;;;;5089465;27;20052;-67
2022/08/30 00:25:49;;;;;;;4.68;3.20;;;;;;;;;;5081606;28;20053;-67
2022/08/30 00:28:15;;;;;;;3.60;3.17;;;;;;;;;;5083804;28;20067;-66
2022/08/30 00:30:42;;;;;;;5.75;3.38;;;;;;;;;;5073861;28;20436;-67
2022/08/30 00:33:09;;;;;;;5.07;3.60;;;;;;;;;;5071437;28;20053;-66
2022/08/30 00:35:37;;;;;;;7.47;3.90;;;;;;;;;;5080471;28;20049;-66
2022/08/30 00:38:03;;;;;;;5.97;4.43;;;;;;;;;;5079178;28;20790;-67
2022/08/30 00:40:30;;;;;;;7.90;4.13;;;;;;;;;;5070524;28;20056;-67
2022/08/30 00:42:58;;;;;;;6.72;3.60;;;;;;;;;;5086972;28;20111;-66
2022/08/30 00:45:33;;;;;;;6.22;4.05;;;;;;;;;;5082231;28;20111;-67
2022/08/30 00:47:59;;;;;;;5.97;4.07;;;;;;;;;;5078410;28;20049;-66
2022/08/30 00:50:31;;;;;;;5.55;4.22;;;;;;;;;;5089887;28;20056;-66
2022/08/30 00:52:59;;;;;;;8.20;4.15;;;;;;;;;;5091918;28;20055;-67
2022/08/30 00:55:26;;;;;;;6.57;4.22;;;;;;;;;;5093394;28;20056;-66
2022/08/30 00:57:55;;;;;;;5.55;4.25;;;;;;;;;;5093276;28;20150;-66
2022/08/30 01:00:22;;;;;;;10.43;3.95;;;;;;;;;;5096260;27;20055;-66
2022/08/30 01:02:48;;;;;;;8.43;4.40;;;;;;;;;;5094363;28;20057;-66
2022/08/30 01:05:18;;;;;;;6.10;4.32;;;;;;;;;;5092269;28;20476;-66
2022/08/30 01:07:44;;;;;;;6.78;4.38;;;;;;;;;;5091450;28;20557;-66
2022/08/30 01:10:12;;;;;;;4.88;4.32;;;;;;;;;;5094448;28;20057;-66
2022/08/30 01:12:38;;;;;;;5.93;4.00;;;;;;;;;;5087859;28;20056;-66
2022/08/30 01:15:06;;;;;;;13.70;5.07;;;;;;;;;;5073794;28;20068;-67
2022/08/30 01:17:33;;;;;;;4.82;4.43;;;;;;;;;;5089714;28;20053;-66
2022/08/30 01:20:02;;;;;;;8.40;4.15;;;;;;;;;;5094311;28;20074;-66
2022/08/30 01:22:53;;;;;;;8.23;5.43;;;;;;;;;;5093403;28;20063;-67
2022/08/30 01:25:21;;;;;;;6.72;4.55;;;;;;;;;;5094133;28;20495;-66
2022/08/30 01:27:50;;;;;;;7.78;4.65;;;;;;;;;;5093109;28;20056;-66
2022/08/30 01:30:16;;;;;;;6.80;4.82;;;;;;;;;;5093607;28;20060;-67
2022/08/30 01:32:44;;;;;;;8.23;4.82;;;;;;;;;;5085053;28;20055;-67
2022/08/30 01:35:12;;;;;;;6.78;5.15;;;;;;;;;;5073465;28;20502;-66
2022/08/30 01:37:39;;;;;;;10.95;5.47;;;;;;;;;;5084913;28;20059;-66
2022/08/30 01:40:06;;;;;;;10.35;5.50;;;;;;;;;;5086002;28;20058;-66
2022/08/30 01:42:33;;;;;;;11.35;5.57;;;;;;;;;;5074243;28;20089;-67
2022/08/30 01:44:59;;;;;;;7.88;6.00;;;;;;;;;;5090516;28;20059;-67
2022/08/30 01:47:26;;;;;;;11.45;5.90;;;;;;;;;;5080899;28;20053;-67
2022/08/30 01:49:52;;;;;;;6.45;5.20;;;;;;;;;;5089971;28;20495;-67
2022/08/30 01:52:18;;;;;;;6.15;4.78;;;;;;;;;;5095312;28;20106;-67
2022/08/30 01:54:45;;;;;;;7.93;5.65;;;;;;;;;;5093447;28;20522;-67
2022/08/30 01:57:13;;;;;;;9.05;5.40;;;;;;;;;;5090863;28;20056;-66
2022/08/30 01:59:42;;;;;;;8.02;5.18;;;;;;;;;;5077826;28;20089;-66
2022/08/30 02:02:08;;;;;;;7.47;5.68;;;;;;;;;;5078254;28;20136;-67
2022/08/30 02:04:35;;;;;;;9.52;6.05;;;;;;;;;;5085240;28;20060;-67
2022/08/30 02:07:02;;;;;;;9.07;5.93;;;;;;;;;;5081098;28;20049;-67
2022/08/30 02:09:28;;;;;;;8.98;5.90;;;;;;;;;;5091924;28;20053;-66
2022/08/30 02:11:55;;;;;;;6.90;5.45;;;;;;;;;;5079024;28;20091;-67
2022/08/30 02:14:21;;;;;;;8.30;5.93;;;;;;;;;;5087143;28;20048;-66
2022/08/30 02:16:48;;;;;;;7.10;5.97;;;;;;;;;;5071905;28;20223;-66
2022/08/30 02:19:15;;;;;;;7.18;5.78;;;;;;;;;;5072793;28;20053;-66
2022/08/30 02:21:41;;;;;;;7.78;5.28;;;;;;;;;;5073923;28;20055;-67
2022/08/30 02:24:07;;;;;;;7.05;5.95;;;;;;;;;;5076092;28;20057;-66
2022/08/30 02:26:35;;;;;;;5.72;5.18;;;;;;;;;;5082643;28;20044;-68
2022/08/30 02:29:04;;;;;;;8.48;5.85;;;;;;;;;;5072647;28;20057;-67
2022/08/30 02:31:30;;;;;;;9.30;5.85;;;;;;;;;;5081670;28;20052;-67
2022/08/30 02:33:57;;;;;;;6.88;6.05;;;;;;;;;;5072984;28;20044;-67
2022/08/30 02:36:23;;;;;;;9.05;5.82;;;;;;;;;;5072166;28;20148;-67
2022/08/30 02:38:50;;;;;;;6.75;6.03;;;;;;;;;;5080595;28;20058;-66
2022/08/30 02:41:17;;;;;;;7.05;6.00;;;;;;;;;;5092926;28;20057;-67
2022/08/30 02:43:43;;;;;;;10.13;5.93;;;;;;;;;;5074581;28;20064;-67
2022/08/30 02:46:10;;;;;;;7.80;5.90;;;;;;;;;;5088270;28;20049;-66
2022/08/30 02:48:36;;;;;;;7.70;6.47;;;;;;;;;;5081446;28;20056;-66
2022/08/30 02:51:06;;;;;;;7.93;5.70;;;;;;;;;;5072451;28;20505;-67
2022/08/30 02:53:37;;;;;;;9.85;6.68;;;;;;;;;;5077781;28;20931;-67
2022/08/30 02:56:03;;;;;;;11.93;6.40;;;;;;;;;;5073208;28;20911;-67
2022/08/30 02:58:30;;;;;;;11.05;6.07;;;;;;;;;;5073807;28;20049;-66
2022/08/30 03:00:56;;;;;;;9.88;6.93;;;;;;;;;;5072331;28;20053;-66
2022/08/30 03:03:23;;;;;;;6.78;6.07;;;;;;;;;;5099119;28;20059;-66
2022/08/30 03:05:49;;;;;;;10.48;6.50;;;;;;;;;;5095274;27;20048;-67
2022/08/30 03:08:16;;;;;;;8.93;6.95;;;;;;;;;;5092343;28;20052;-66
2022/08/30 03:10:42;;;;;;;7.47;6.35;;;;;;;;;;5077820;28;20060;-67
2022/08/30 03:13:08;;;;;;;7.20;6.20;;;;;;;;;;5074553;28;20124;-67
2022/08/30 03:15:36;;;;;;;8.07;6.60;;;;;;;;;;5072409;28;20087;-67
2022/08/30 03:18:02;;;;;;;9.05;6.55;;;;;;;;;;5076815;28;20053;-67
2022/08/30 03:20:29;;;;;;;9.57;6.65;;;;;;;;;;5086605;28;20065;-67
2022/08/30 03:22:55;;;;;;;7.50;6.30;;;;;;;;;;5077440;28;20051;-66
2022/08/30 03:25:22;;;;;;;10.57;6.60;;;;;;;;;;5071989;28;20049;-66
2022/08/30 03:27:49;;;;;;;8.52;6.72;;;;;;;;;;5086196;28;20052;-66
2022/08/30 03:30:16;;;;;;;12.40;7.38;;;;;;;;;;5092505;28;20056;-67
2022/08/30 03:32:42;;;;;;;8.52;6.53;;;;;;;;;;5089157;28;20044;-66
2022/08/30 03:35:09;;;;;;;7.55;6.63;;;;;;;;;;5090588;28;20078;-66
2022/08/30 03:37:35;;;;;;;6.65;6.05;;;;;;;;;;5084693;28;20063;-66
2022/08/30 03:40:06;;;;;;;8.98;6.45;;;;;;;;;;5092458;28;20530;-66
2022/08/30 03:42:32;;;;;;;8.43;7.20;;;;;;;;;;5087915;28;20048;-67
2022/08/30 03:45:01;;;;;;;9.80;6.45;;;;;;;;;;5094101;28;20051;-67
2022/08/30 03:47:27;;;;;;;7.85;6.90;;;;;;;;;;5080443;28;20140;-66
2022/08/30 03:49:54;;;;;;;9.30;6.40;;;;;;;;;;5071572;28;20049;-66
2022/08/30 03:52:20;;;;;;;8.70;7.18;;;;;;;;;;5072248;28;20950;-67
2022/08/30 03:54:47;;;;;;;9.52;7.45;;;;;;;;;;5082448;28;20068;-67
2022/08/30 03:57:13;;;;;;;11.73;6.95;;;;;;;;;;5079126;28;20053;-67
2022/08/30 03:59:45;;;;;;;11.80;7.20;;;;;;;;;;5072033;28;20053;-67
2022/08/30 04:02:11;;;;;;;7.45;6.45;;;;;;;;;;5071276;28;20049;-67
2022/08/30 04:04:38;;;;;;;8.05;6.15;;;;;;;;;;5083452;28;20064;-66
2022/08/30 04:07:04;;;;;;;9.00;6.88;;;;;;;;;;5087526;28;20511;-66
2022/08/30 04:09:30;;;;;;;7.97;6.13;;;;;;;;;;5070946;28;20064;-66
2022/08/30 04:11:56;;;;;;;9.85;7.03;;;;;;;;;;5086614;28;20055;-66
2022/08/30 04:14:23;;;;;;;13.23;6.63;;;;;;;;;;5084001;27;20497;-66
2022/08/30 04:16:49;;;;;;;7.63;6.82;;;;;;;;;;5073728;28;20048;-67
2022/08/30 04:19:16;;;;;;;9.88;7.47;;;;;;;;;;5092422;28;20924;-67
2022/08/30 04:21:43;;;;;;;8.10;7.07;;;;;;;;;;5088892;28;20052;-67
2022/08/30 04:24:10;;;;;;;7.78;6.82;;;;;;;;;;5079304;28;20183;-67
2022/08/30 04:26:37;;;;;;;8.23;6.53;;;;;;;;;;5077567;28;20056;-67
2022/08/30 04:29:04;;;;;;;11.10;7.18;;;;;;;;;;5073461;28;20507;-67
2022/08/30 04:31:30;;;;;;;11.23;7.10;;;;;;;;;;5080425;28;20059;-67
2022/08/30 04:33:56;;;;;;;10.93;7.20;;;;;;;;;;5095050;28;20064;-67
2022/08/30 04:36:23;;;;;;;10.60;6.93;;;;;;;;;;5094904;28;20052;-67
2022/08/30 04:38:49;;;;;;;9.02;6.88;;;;;;;;;;5092494;28;20446;-66
2022/08/30 04:41:16;;;;;;;7.40;6.70;;;;;;;;;;5074705;28;20057;-67
2022/08/30 04:43:44;;;;;;;9.18;6.60;;;;;;;;;;5078489;28;20061;-66
2022/08/30 04:46:11;;;;;;;8.45;6.80;;;;;;;;;;5087046;28;20055;-66
2022/08/30 04:48:38;;;;;;;7.82;7.03;;;;;;;;;;5083667;28;20057;-66
2022/08/30 04:51:06;;;;;;;8.00;7.18;;;;;;;;;;5075393;28;20420;-66
2022/08/30 04:53:32;;;;;;;10.48;8.10;;;;;;;;;;5083243;28;20052;-66
2022/08/30 04:55:59;;;;;;;7.43;6.63;;;;;;;;;;5084265;28;20041;-66
2022/08/30 04:58:25;;;;;;;7.10;6.47;;;;;;;;;;5078499;28;20056;-66
2022/08/30 05:00:51;;;;;;;7.45;6.45;;;;;;;;;;5074238;28;20049;-67
2022/08/30 05:03:18;;;;;;;10.35;6.80;;;;;;;;;;5080064;28;20573;-66
2022/08/30 05:05:48;;;;;;;9.80;7.25;;;;;;;;;;5092924;28;20052;-67
2022/08/30 05:08:15;;;;;;;10.88;6.75;;;;;;;;;;5093346;28;20055;-66
2022/08/30 05:10:43;;;;;;;8.23;7.03;;;;;;;;;;5087867;28;20060;-67
2022/08/30 05:13:10;;;;;;;9.75;6.90;;;;;;;;;;5083168;28;20052;-67
2022/08/30 05:15:38;;;;;;;9.02;6.05;;;;;;;;;;5082430;28;20053;-67
2022/08/30 05:18:06;;;;;;;7.10;6.40;;;;;;;;;;5089876;28;20061;-67
2022/08/30 05:20:33;;;;;;;10.55;7.07;;;;;;;;;;5092751;28;20052;-66
2022/08/30 05:23:01;;;;;;;10.38;7.25;;;;;;;;;;5075120;28;20088;-66
2022/08/30 05:25:29;;;;;;;9.23;8.10;;;;;;;;;;5073070;28;20566;-67
2022/08/30 05:27:55;;;;;;;9.52;6.97;;;;;;;;;;5085574;28;20432;-67
2022/08/30 05:30:22;;;;;;;10.07;6.90;;;;;;;;;;5102876;27;20519;-66
2022/08/30 05:32:49;;;;;;;9.68;7.13;;;;;;;;;;5088179;28;20054;-67
2022/08/30 05:35:16;;;;;;;7.38;6.03;;;;;;;;;;5073389;28;20065;-67
2022/08/30 05:37:42;;;;;;;7.38;6.00;;;;;;;;;;5080171;28;20085;-66
2022/08/30 05:40:10;;;;;;;11.80;6.75;;;;;;;;;;5082435;28;20096;-67
2022/08/30 05:42:37;;;;;;;10.20;7.28;;;;;;;;;;5072388;28;20056;-66
2022/08/30 05:45:04;;;;;;;7.95;7.15;;;;;;;;;;5075423;28;20049;-67
2022/08/30 05:47:30;;;;;;;7.30;6.38;;;;;;;;;;5090666;28;20488;-66
2022/08/30 05:49:56;;;;;;;7.40;6.22;;;;;;;;;;5092940;28;20059;-65
2022/08/30 05:52:22;;;;;;;9.30;6.60;;;;;;;;;;5090962;28;20107;-65
2022/08/30 05:54:52;;;;;;;8.15;5.90;;;;;;;;;;5088304;28;20059;-65
2022/08/30 05:57:19;;;;;;;5.90;5.10;;;;;;;;;;5080896;28;20059;-65
2022/08/30 05:59:45;;;;;;;9.15;5.70;;;;;;;;;;5078330;28;20500;-66
2022/08/30 06:02:11;;;;;;;7.03;5.68;;;;;;;;;;5096594;28;20492;-65
2022/08/30 06:04:38;;;;;;;7.20;5.60;;;;;;;;;;5093216;27;20049;-65
2022/08/30 06:07:04;;;;;;;9.45;5.53;;;;;;;;;;5092227;28;20058;-66
2022/08/30 06:09:30;;;;;;;6.65;5.82;;;;;;;;;;5092698;28;20057;-65
2022/08/30 06:11:57;;;;;;;9.38;5.15;;;;;;;;;;5077983;28;20049;-65
2022/08/30 06:14:23;;;;;;;6.10;5.20;;;;;;;;;;5081911;28;20489;-64
2022/08/30 06:16:50;;;;;;;8.40;4.95;;;;;;;;;;5084715;28;20049;-66
2022/08/30 06:19:17;;;;;;;6.38;4.82;;;;;;;;;;5095903;28;20053;-66
2022/08/30 06:21:46;;;;;;;5.45;4.68;;;;;;;;;;5094017;28;20057;-67
2022/08/30 06:24:13;;;;;;;7.13;5.20;;;;;;;;;;5091932;28;20049;-66
2022/08/30 06:26:41;;;;;;;5.63;4.72;;;;;;;;;;5075049;28;20060;-66
2022/08/30 06:29:09;;;;;;;7.20;4.70;;;;;;;;;;5082834;28;20431;-64
2022/08/30 06:31:35;;;;;;;8.32;4.80;;;;;;;;;;5078264;28;20045;-65
2022/08/30 06:34:03;;;;;;;6.47;4.80;;;;;;;;;;5090295;28;20587;-65
2022/08/30 06:36:30;;;;;;;5.43;4.68;;;;;;;;;;5082417;28;20929;-64
2022/08/30 06:38:57;;;;;;;5.72;4.57;;;;;;;;;;5086045;28;20050;-65
2022/08/30 06:41:26;;;;;;;5.35;4.25;;;;;;;;;;5082314;28;20064;-65
2022/08/30 06:43:53;;;;;;;5.28;4.18;;;;;;;;;;5080214;28;20053;-65
2022/08/30 06:46:21;;;;;;;5.63;4.28;;;;;;;;;;5097197;28;20509;-65
2022/08/30 06:48:48;;;;;;;9.80;4.55;;;;;;;;;;5089743;28;20558;-65
2022/08/30 06:51:17;;;;;;;5.32;4.10;;;;;;;;;;5084030;28;20944;-65
2022/08/30 06:53:44;;;;;;;7.25;4.10;;;;;;;;;;5089821;28;20076;-65
2022/08/30 06:56:11;;;;;;;4.95;4.25;;;;;;;;;;5091669;28;20090;-64
2022/08/30 06:58:42;;;;;;;3.95;3.55;;;;;;;;;;5083853;28;20087;-66
2022/08/30 07:01:11;;;;;;;4.20;3.55;;;;;;;;;;5085638;28;20057;-66
2022/08/30 07:03:37;;;;;;;5.93;3.53;;;;;;;;;;5087981;28;20416;-65
2022/08/30 07:06:04;;;;;;;4.70;3.13;;;;;;;;;;5092471;28;20057;-65
2022/08/30 07:08:30;;;;;;;4.68;3.33;;;;;;;;;;5084203;28;20160;-67
2022/08/30 07:10:56;;;;;;;5.43;2.70;;;;;;;;;;5089569;28;20060;-67
2022/08/30 07:13:23;;;;;;;6.25;2.95;;;;;;;;;;5073849;28;20428;-67
2022/08/30 07:15:50;;;;;;;2.95;2.58;;;;;;;;;;5111932;28;20048;-67
2022/08/30 07:21:06;;;;;;;2.70;2.30;;;;;;;;;;5079592;28;20063;-68
2022/08/30 07:23:33;;;;;;;3.15;2.30;;;;;;;;;;5091970;28;20044;-67
2022/08/30 07:26:02;;;;;;;4.80;1.90;;;;;;;;;;5095479;28;20063;-67
2022/08/30 07:28:28;;;;;;;6.40;2.30;;;;;;;;;;5090910;28;20061;-67
2022/08/30 07:30:54;;;;;;;4.45;2.20;;;;;;;;;;5085820;28;20049;-69
2022/08/30 07:33:22;;;;;;;2.78;1.80;;;;;;;;;;5072090;28;20131;-69
2022/08/30 07:35:48;;;;;;;5.22;1.95;;;;;;;;;;5075916;28;20057;-70
2022/08/30 07:38:14;;;;;;;5.20;1.80;;;;;;;;;;5082297;28;20053;-66
2022/08/30 07:40:41;;;;;;;4.25;1.48;;;;;;;;;;5081171;28;20052;-66
2022/08/30 07:43:07;;;;;;;10.75;1.48;;;;;;;;;;5091839;28;20049;-66
2022/08/30 07:45:35;;;;;;;3.72;1.42;;;;;;;;;;5087556;28;20398;-65
2022/08/30 07:48:02;;;;;;;2.17;1.08;;;;;;;;;;5085745;28;20060;-65
2022/08/30 07:50:28;;;;;;;2.55;1.08;;;;;;;;;;5087384;28;20055;-66
2022/08/30 07:52:54;;;;;;;4.53;1.17;;;;;;;;;;5101452;28;20052;-66
2022/08/30 07:55:21;;;;;;;2.75;1.05;;;;;;;;;;5093996;27;20059;-65
2022/08/30 07:57:47;;;;;;;1.80;1.10;;;;;;;;;;5092442;28;20083;-65
2022/08/30 08:00:13;;;;;;;3.92;1.10;;;;;;;;;;5082210;28;20060;-66
2022/08/30 08:02:40;;;;;;;4.78;1.20;;;;;;;;;;5087710;28;20128;-66
2022/08/30 08:05:08;;;;;;;3.42;1.40;;;;;;;;;;5070889;28;20052;-68
2022/08/30 08:07:38;;;;;;;3.28;1.20;;;;;;;;;;5084168;28;20516;-66
2022/08/30 08:10:04;;;;;;;4.65;1.23;;;;;;;;;;5090401;28;20056;-67
2022/08/30 08:12:31;;;;;;;5.57;1.27;;;;;;;;;;5087930;28;20059;-66
2022/08/30 08:14:57;;;;;;;1.33;1.00;;;;;;;;;;5072271;28;20075;-66
2022/08/30 08:17:23;;;;;;;1.77;1.33;;;;;;;;;;5075473;28;20539;-67
2022/08/30 08:19:50;;;;;;;1.20;0.98;;;;;;;;;;5075561;28;20059;-68
2022/08/30 08:22:16;;;;;;;5.57;1.55;;;;;;;;;;5072248;28;20136;-66
2022/08/30 08:24:47;;;;;;;2.63;1.33;;;;;;;;;;5071379;28;20056;-68
2022/08/30 08:27:15;;;;;;;5.18;1.13;;;;;;;;;;5081841;28;20909;-69
2022/08/30 08:29:41;;;;;;;2.40;1.20;;;;;;;;;;5091970;28;20048;-67
2022/08/30 08:32:08;;;;;;;1.55;1.23;;;;;;;;;;5085768;28;20094;-68
2022/08/30 08:34:35;;;;;;;1.50;1.00;;;;;;;;;;5093897;28;20056;-67
2022/08/30 08:37:02;;;;;;;3.10;1.08;;;;;;;;;;5090663;28;20145;-68
2022/08/30 08:39:28;;;;;;;1.23;1.00;;;;;;;;;;5091159;28;20052;-67
2022/08/30 08:41:57;;;;;;;1.48;1.10;;;;;;;;;;5072394;28;20056;-68
2022/08/30 08:44:38;;;;;;;3.00;1.00;;;;;;;;;;5070846;28;20064;-68
2022/08/30 08:47:04;;;;;;;4.63;1.00;;;;;;;;;;5073784;28;20130;-69
2022/08/30 08:49:34;;;;;;;1.65;1.00;;;;;;;;;;5083851;28;20061;-69
2022/08/30 08:54:46;;;;;;;;;;;;;;;;;;5076898;28;20063;-68
2022/08/30 08:57:13;;;;;;;1.58;1.00;;;;;;;;;;5078701;28;45964;-69
2022/08/30 08:59:43;;;;;;;2.63;1.10;;;;;;;;;;5079625;28;20096;-69
2022/08/30 09:02:36;;;;;;;1.30;1.08;;;;;;;;;;5071382;28;20506;-68
2022/08/30 09:05:02;;;;;;;3.20;1.25;;;;;;;;;;5070084;28;20056;-66
2022/08/30 09:07:31;;;;;;;2.88;1.00;;;;;;;;;;5090400;28;20048;-68
2022/08/30 09:09:59;;;;;;;2.67;1.30;;;;;;;;;;5091374;27;20063;-68
2022/08/30 09:12:26;;;;;;;1.50;0.85;;;;;;;;;;5072504;28;20060;-69
2022/08/30 09:14:53;;;;;;;3.28;1.00;;;;;;;;;;5084691;28;20059;-66
2022/08/30 09:17:21;;;;;;;1.85;1.38;;;;;;;;;;5094737;28;20053;-64
2022/08/30 09:19:50;;;;;;;2.25;1.23;;;;;;;;;;5094036;28;20448;-67
2022/08/30 09:22:32;;;;;;;2.22;1.17;;;;;;;;;;5073662;28;20417;-66
2022/08/30 09:25:00;;;;;;;1.30;1.08;;;;;;;;;;5074371;28;20052;-68
2022/08/30 09:27:34;;;;;;;1.55;1.05;;;;;;;;;;5074928;28;20063;-68
2022/08/30 09:30:09;;;;;;;3.50;1.05;;;;;;;;;;5092644;28;20558;-68
2022/08/30 09:32:51;;;;;;;1.10;0.93;;;;;;;;;;5086018;28;20057;-67
2022/08/30 09:35:37;;;;;;;1.83;1.38;;;;;;;;;;5093097;28;20056;-65
2022/08/30 09:38:05;;;;;;;1.45;1.30;;;;;;;;;;5082154;28;20086;-68
2022/08/30 09:40:35;;;;;;;1.30;1.00;;;;;;;;;;5086022;28;20053;-65
2022/08/30 09:43:21;;;;;;;3.03;1.05;;;;;;;;;;5073339;28;20053;-65
2022/08/30 09:45:59;;;;;;;10.45;1.88;;;;;;;;;;5073348;28;20056;-66
2022/08/30 09:48:26;;;;;;;;;;;;;;;;;;5090426;28;20063;-66
2022/08/30 09:50:57;;;;;;;2.40;1.27;;;;;;;;;;5089636;28;47016;-68
2022/08/30 09:53:24;;;;;;;2.00;1.40;;;;;;;;;;5093402;28;20500;-65
2022/08/30 09:56:14;;;;;;;1.10;1.00;;;;;;;;;;5092641;28;20500;-67
2022/08/30 09:58:40;;;;;;;2.53;1.58;;;;;;;;;;5092634;28;20052;-69
2022/08/30 10:01:14;;;;;;;2.22;1.08;;;;;;;;;;5093275;28;20053;-69
2022/08/30 10:03:40;;;;;;;1.30;1.00;;;;;;;;;;5092620;28;20151;-70
2022/08/30 10:06:27;;;;;;;2.67;1.05;;;;;;;;;;5092757;28;20083;-67
2022/08/30 10:09:13;;;;;;;3.45;1.40;;;;;;;;;;5074055;28;20139;-67
2022/08/30 10:11:58;;;;;;;12.05;1.30;;;;;;;;;;5091569;28;20062;-68
2022/08/30 10:14:36;;;;;;;1.15;0.95;;;;;;;;;;5091827;28;20052;-66
2022/08/30 10:17:06;;;;;;;1.23;1.08;;;;;;;;;;5090162;28;20052;-66
2022/08/30 10:19:44;;;;;;;2.97;1.30;;;;;;;;;;5097081;28;20052;-67
2022/08/30 10:22:23;;;;;;;2.47;1.30;;;;;;;;;;5091188;27;20102;-66
2022/08/30 10:24:52;;;;;;;2.30;1.08;;;;;;;;;;5072657;28;20110;-66
2022/08/30 10:27:21;;;;;;;4.03;1.80;;;;;;;;;;5079276;28;20051;-66
2022/08/30 10:29:59;;;;;;;2.78;1.00;;;;;;;;;;5093177;28;20063;-67
2022/08/30 10:32:36;;;;;;;2.30;1.30;;;;;;;;;;5086540;28;20082;-66
2022/08/30 10:35:06;;;;;;;1.67;1.15;;;;;;;;;;5091076;28;20045;-64
2022/08/30 10:37:36;;;;;;;2.50;1.00;;;;;;;;;;5086707;28;20053;-65
2022/08/30 10:42:57;;;;;;;2.25;1.20;;;;;;;;;;5086605;28;20908;-65
2022/08/30 10:45:24;;;;;;;1.58;1.00;;;;;;;;;;5074675;28;20053;-65
2022/08/30 10:47:56;;;;;;;3.28;1.40;;;;;;;;;;5081788;28;20504;-64
2022/08/30 10:50:26;;;;;;;1.55;0.95;;;;;;;;;;5092388;28;20521;-65
2022/08/30 10:52:53;;;;;;;1.80;1.08;;;;;;;;;;5088112;28;20056;-63
2022/08/30 10:55:28;;;;;;;6.50;1.30;;;;;;;;;;5086150;28;20049;-64
2022/08/30 10:57:58;;;;;;;3.25;1.05;;;;;;;;;;5102051;28;20158;-64
2022/08/30 11:00:24;;;;;;;2.25;1.25;;;;;;;;;;5109706;27;20068;-64
2022/08/30 11:03:01;;;;;;;3.17;1.30;;;;;;;;;;5105121;28;20048;-64
2022/08/30 11:05:41;;;;;;;1.60;1.10;;;;;;;;;;5072166;28;20057;-65
2022/08/30 11:08:11;;;;;;;1.95;1.08;;;;;;;;;;5076165;28;20472;-66
2022/08/30 11:11:00;;;;;;;5.63;1.50;;;;;;;;;;5091437;28;20107;-63
2022/08/30 11:13:29;;;;;;;1.85;1.27;;;;;;;;;;5084545;28;20527;-65
2022/08/30 11:15:56;;;;;;;2.58;1.15;;;;;;;;;;5092926;28;20044;-64
2022/08/30 11:18:22;;;;;;;1.33;1.10;;;;;;;;;;5091978;28;20080;-64
2022/08/30 11:20:52;;;;;;;1.58;1.15;;;;;;;;;;5089652;28;20071;-67
2022/08/30 11:23:24;;;;;;;3.13;1.42;;;;;;;;;;5102114;28;20059;-68
2022/08/30 11:25:58;;;;;;;1.50;1.00;;;;;;;;;;5092585;27;20084;-69
2022/08/30 11:28:36;;;;;;;6.18;1.40;;;;;;;;;;5091205;28;20063;-67
2022/08/30 11:31:21;;;;;;;3.00;1.30;;;;;;;;;;5088384;28;20056;-69
2022/08/30 11:33:55;;;;;;;2.90;1.17;;;;;;;;;;5089056;28;20128;-67
2022/08/30 11:36:28;;;;;;;2.85;1.17;;;;;;;;;;5091618;28;20052;-68
2022/08/30 11:39:08;;;;;;;2.83;1.42;;;;;;;;;;5086431;28;20052;-67
2022/08/30 11:41:39;;;;;;;3.15;1.13;;;;;;;;;;5081633;28;20060;-68
2022/08/30 11:44:20;;;;;;;3.03;1.25;;;;;;;;;;5107104;28;20052;-65
2022/08/30 11:46:48;;;;;;;3.00;1.15;;;;;;;;;;5080553;28;20136;-65
2022/08/30 11:49:20;;;;;;;2.40;1.30;;;;;;;;;;5072989;28;20044;-68
2022/08/30 11:52:05;;;;;;;4.28;1.60;;;;;;;;;;5082637;28;20056;-65
2022/08/30 11:55:12;;;;;;;2.28;1.20;;;;;;;;;;5081938;28;20056;-68
2022/08/30 11:57:47;;;;;;;3.00;1.20;;;;;;;;;;5078263;28;20531;-67
2022/08/30 12:00:26;;;;;;;3.53;1.35;;;;;;;;;;5080772;28;20124;-65
2022/08/30 12:03:12;;;;;;;4.32;1.50;;;;;;;;;;5090149;28;20057;-66
2022/08/30 12:05:39;;;;;;;3.50;1.23;;;;;;;;;;5071969;28;20045;-66
2022/08/30 12:08:08;;;;;;;2.15;1.23;;;;;;;;;;5082803;28;20048;-66
2022/08/30 12:10:44;;;;;;;1.88;1.17;;;;;;;;;;5090435;28;20048;-66
2022/08/30 12:13:29;;;;;;;3.03;1.45;;;;;;;;;;5091249;28;20053;-65
2022/08/30 12:16:19;;;;;;;7.50;2.20;;;;;;;;;;5091438;28;20052;-66
2022/08/30 12:18:59;;;;;;;2.40;1.30;;;;;;;;;;5094465;28;20056;-66
2022/08/30 12:21:28;;;;;;;4.97;1.67;;;;;;;;;;5084660;28;20068;-65
2022/08/30 12:24:12;;;;;;;4.13;1.42;;;;;;;;;;5091055;28;20083;-66
2022/08/30 12:26:40;;;;;;;3.88;1.80;;;;;;;;;;5089766;28;20392;-65
2022/08/30 12:29:17;;;;;;;2.97;1.55;;;;;;;;;;5088812;28;20057;-65
2022/08/30 12:31:57;;;;;;;2.85;1.75;;;;;;;;;;5083821;28;20048;-66
2022/08/30 12:34:27;;;;;;;2.85;1.42;;;;;;;;;;5090409;28;20060;-66
2022/08/30 12:36:57;;;;;;;2.05;1.40;;;;;;;;;;5071416;28;20059;-66
2022/08/30 12:39:26;;;;;;;6.32;1.63;;;;;;;;;;5079406;28;20053;-66
2022/08/30 12:41:53;;;;;;;3.53;1.58;;;;;;;;;;5090912;28;20053;-67
2022/08/30 12:44:21;;;;;;;3.50;1.55;;;;;;;;;;5091016;28;20064;-67
2022/08/30 12:46:50;;;;;;;4.78;1.70;;;;;;;;;;5090540;28;20048;-65
2022/08/30 12:49:23;;;;;;;2.53;1.20;;;;;;;;;;5100741;28;20056;-67
2022/08/30 12:51:51;;;;;;;4.85;1.30;;;;;;;;;;5094440;28;20057;-65
2022/08/30 12:54:19;;;;;;;3.00;1.45;;;;;;;;;;5086493;28;20053;-67
2022/08/30 12:57:06;;;;;;;4.28;1.65;;;;;;;;;;5096400;28;20492;-67
2022/08/30 12:59:55;;;;;;;5.90;2.13;;;;;;;;;;5077116;28;20049;-63
2022/08/30 13:02:51;;;;;;;3.67;1.38;;;;;;;;;;5086532;28;20060;-66
2022/08/30 13:05:28;;;;;;;4.47;1.60;;;;;;;;;;5073888;28;20049;-65
2022/08/30 13:08:07;;;;;;;5.90;1.50;;;;;;;;;;5090033;28;20048;-66
2022/08/30 13:10:34;;;;;;;3.88;1.52;;;;;;;;;;5093181;28;20059;-67
2022/08/30 13:13:02;;;;;;;3.10;1.50;;;;;;;;;;5079629;28;20048;-67
2022/08/30 13:15:33;;;;;;;3.70;1.33;;;;;;;;;;5074293;28;20111;-66
2022/08/30 13:18:17;;;;;;;5.28;1.20;;;;;;;;;;5084104;28;20052;-67
2022/08/30 13:21:13;;;;;;;3.15;1.63;;;;;;;;;;5093609;28;20044;-69
2022/08/30 13:23:39;;;;;;;6.57;1.33;;;;;;;;;;5076248;28;20048;-66
2022/08/30 13:26:06;;;;;;;4.30;1.80;;;;;;;;;;5093959;28;20103;-67
2022/08/30 13:29:02;;;;;;;3.03;1.40;;;;;;;;;;5079827;28;20072;-67
2022/08/30 13:31:28;;;;;;;;;;;;;;;;;;5091660;28;20053;-67
2022/08/30 13:33:56;;;;;;;3.53;1.35;;;;;;;;;;5080176;28;45743;-66
2022/08/30 13:36:32;;;;;;;2.05;1.60;;;;;;;;;;5087992;28;20060;-65
2022/08/30 13:38:59;;;;;;;2.88;1.92;;;;;;;;;;5093640;28;20542;-66
2022/08/30 13:41:26;;;;;;;3.50;1.88;;;;;;;;;;5092614;28;20052;-66
2022/08/30 13:43:59;;;;;;;2.22;1.75;;;;;;;;;;5093211;28;20060;-65
2022/08/30 13:46:42;;;;;;;3.25;1.88;;;;;;;;;;5092515;28;20106;-64
2022/08/30 13:49:18;;;;;;;4.18;2.03;;;;;;;;;;5086486;28;20053;-64
2022/08/30 13:52:05;;;;;;;4.63;1.95;;;;;;;;;;5073228;28;20141;-67
2022/08/30 13:54:46;;;;;;;2.85;2.15;;;;;;;;;;5078438;28;20140;-67
2022/08/30 13:57:16;;;;;;;4.13;2.33;;;;;;;;;;5093403;28;20859;-66
2022/08/30 14:00:03;;;;;;;5.00;2.75;;;;;;;;;;5092008;28;20063;-65
2022/08/30 14:02:31;;;;;;;3.67;2.40;;;;;;;;;;5072062;28;20053;-65
2022/08/30 14:05:07;;;;;;;7.13;2.30;;;;;;;;;;5073202;28;20064;-65
2022/08/30 14:07:50;;;;;;;3.85;1.85;;;;;;;;;;5086307;28;20052;-65
2022/08/30 14:10:18;;;;;;;2.35;2.15;;;;;;;;;;5092802;28;20049;-65
2022/08/30 14:13:04;;;;;;;2.10;1.90;;;;;;;;;;5086795;28;20079;-64
2022/08/30 14:15:37;;;;;;;3.22;2.30;;;;;;;;;;5075019;28;20220;-65
2022/08/30 14:18:05;;;;;;;2.42;1.50;;;;;;;;;;5084516;28;20056;-65
2022/08/30 14:20:32;;;;;;;2.47;1.50;;;;;;;;;;5091724;28;20048;-66
2022/08/30 14:22:58;;;;;;;3.10;1.88;;;;;;;;;;5093711;28;20131;-66
2022/08/30 14:25:27;;;;;;;2.25;1.40;;;;;;;;;;5091842;28;20053;-66
2022/08/30 14:27:54;;;;;;;4.05;1.55;;;;;;;;;;5091148;28;20063;-70
2022/08/30 14:30:23;;;;;;;2.88;1.70;;;;;;;;;;5092359;28;20519;-66
2022/08/30 14:32:51;;;;;;;4.97;1.75;;;;;;;;;;5085278;28;20057;-66
2022/08/30 14:35:19;;;;;;;3.28;1.65;;;;;;;;;;5078095;28;20078;-71
2022/08/30 14:37:46;;;;;;;1.90;1.40;;;;;;;;;;5078536;28;20587;-66
2022/08/30 14:40:13;;;;;;;1.85;1.48;;;;;;;;;;5087866;28;20063;-66
2022/08/30 14:42:39;;;;;;;3.42;1.60;;;;;;;;;;5086659;28;20355;-68
2022/08/30 14:45:07;;;;;;;1.80;1.70;;;;;;;;;;5079294;28;20045;-67
2022/08/30 14:47:33;;;;;;;2.47;1.63;;;;;;;;;;5087019;28;20056;-67
2022/08/30 14:50:00;;;;;;;1.65;1.30;;;;;;;;;;5088200;28;20053;-67
2022/08/30 14:52:27;;;;;;;1.52;1.40;;;;;;;;;;5091991;28;20062;-68
2022/08/30 14:54:57;;;;;;;2.45;1.40;;;;;;;;;;5085355;28;20086;-67
2022/08/30 14:57:33;;;;;;;2.42;1.17;;;;;;;;;;5075995;28;20114;-67
2022/08/30 15:00:01;;;;;;;2.65;1.33;;;;;;;;;;5075302;28;20152;-68
2022/08/30 15:02:28;;;;;;;1.15;1.05;;;;;;;;;;5084726;28;20059;-67
2022/08/30 15:04:54;;;;;;;1.52;1.25;;;;;;;;;;5091354;28;20052;-66
2022/08/30 15:07:20;;;;;;;4.35;2.20;;;;;;;;;;5091508;28;20055;-65